Time;durP1;ratioP1;P1;durP2;ratioP2;P2;SDS_P1;SDS_P2;PMS_P1;PMS_P2;Temp;Humidity;BMP_temperature;BMP_pressure;BME280_temperature;BME280_humidity;BME280_pressure;Samples;Min_cycle;Max_cycle;Signal;HPM_P1;HPM_P2
2022/04/18 00:01:15;;;;;;;;;;;20.90;24.50;;;;;;5148406;27;20267;-60
2022/04/18 00:03:41;;;;;;;;;;;21.10;24.30;;;;;;5145129;27;19924;-61
2022/04/18 00:06:07;;;;;;;;;;;20.90;24.70;;;;;;5144857;27;19923;-64
2022/04/18 00:08:32;;;;;;;;;;;21.10;24.60;;;;;;5150267;27;19927;-58
2022/04/18 00:10:58;;;;;;;;;;;20.90;24.90;;;;;;5144830;27;19923;-62
2022/04/18 00:13:24;;;;;;;;;;;21.20;24.50;;;;;;5150298;27;20402;-59
2022/04/18 00:15:50;;;;;;;;;;;20.80;24.90;;;;;;5125001;27;19924;-62
2022/04/18 00:18:15;;;;;;;;;;;21.20;24.40;;;;;;5139738;27;19931;-57
2022/04/18 00:20:41;;;;;;;;;;;20.90;24.40;;;;;;5149513;27;20394;-61
2022/04/18 00:23:07;;;;;;;;;;;21.20;24.30;;;;;;5125995;27;20331;-53
2022/04/18 00:25:33;;;;;;;;;;;21.00;24.30;;;;;;5144589;27;20612;-61
2022/04/18 00:27:58;;;;;;;;;;;21.10;24.10;;;;;;5149957;27;19923;-54
2022/04/18 00:30:24;;;;;;;;;;;21.00;24.20;;;;;;5144525;27;20328;-58
2022/04/18 00:32:50;;;;;;;;;;;21.20;24.10;;;;;;5148666;27;19923;-58
2022/04/18 00:35:16;;;;;;;;;;;21.00;24.20;;;;;;5143498;27;20154;-60
2022/04/18 00:37:42;;;;;;;;;;;21.20;24.00;;;;;;5142296;27;19938;-58
2022/04/18 00:40:11;;;;;;;;;;;20.80;24.40;;;;;;5149785;27;19973;-58
2022/04/18 00:42:37;;;;;;;;;;;21.10;24.10;;;;;;5144437;27;19930;-59
2022/04/18 00:45:03;;;;;;;;;;;20.80;24.30;;;;;;5144355;27;20017;-59
2022/04/18 00:47:28;;;;;;;;;;;21.10;24.10;;;;;;5149733;27;19931;-58
2022/04/18 00:49:54;;;;;;;;;;;21.10;24.00;;;;;;5144237;27;19927;-61
2022/04/18 00:52:20;;;;;;;;;;;21.00;24.10;;;;;;5144818;27;20416;-55
2022/04/18 00:54:46;;;;;;;;;;;21.20;23.80;;;;;;5144796;27;19923;-59
2022/04/18 00:57:11;;;;;;;;;;;21.00;24.00;;;;;;5124169;27;20294;-63
2022/04/18 00:59:37;;;;;;;;;;;21.10;23.90;;;;;;5131049;27;19927;-60
2022/04/18 01:02:04;;;;;;;;;;;21.00;24.00;;;;;;5143862;27;19931;-57
2022/04/18 01:04:30;;;;;;;;;;;21.10;23.90;;;;;;5143889;27;19993;-60
2022/04/18 01:06:57;;;;;;;;;;;21.10;23.90;;;;;;5149542;27;19978;-61
2022/04/18 01:09:22;;;;;;;;;;;20.90;24.10;;;;;;5125541;27;19927;-59
2022/04/18 01:11:48;;;;;;;;;;;21.20;23.90;;;;;;5141280;27;20330;-57
2022/04/18 01:14:14;;;;;;;;;;;20.80;24.30;;;;;;5145509;27;19929;-58
2022/04/18 01:16:40;;;;;;;;;;;21.10;24.00;;;;;;5144156;27;20362;-60
2022/04/18 01:19:09;;;;;;;;;;;20.90;24.20;;;;;;5149173;27;19929;-53
2022/04/18 01:21:35;;;;;;;;;;;21.20;23.90;;;;;;5143640;27;19934;-57
2022/04/18 01:24:01;;;;;;;;;;;20.90;24.20;;;;;;5143431;27;19934;-56
2022/04/18 01:29:11;;;;;;;;;;;21.10;24.10;;;;;;5143800;27;19923;-60
2022/04/18 01:31:37;;;;;;;;;;;21.20;24.10;;;;;;5138748;27;20081;-59
2022/04/18 01:34:04;;;;;;;;;;;21.10;24.20;;;;;;5148436;27;20364;-59
2022/04/18 01:36:29;;;;;;;;;;;20.90;24.50;;;;;;5143376;27;19927;-56
2022/04/18 01:38:55;;;;;;;;;;;21.10;24.30;;;;;;5143382;27;20175;-54
2022/04/18 01:41:21;;;;;;;;;;;21.10;24.20;;;;;;5130237;27;19933;-63
2022/04/18 01:43:47;;;;;;;;;;;21.10;24.10;;;;;;5143009;27;20294;-59
2022/04/18 01:46:16;;;;;;;;;;;20.90;24.30;;;;;;5148821;27;19923;-58
2022/04/18 01:48:41;;;;;;;;;;;21.10;24.10;;;;;;5105221;27;19926;-60
2022/04/18 01:51:07;;;;;;;;;;;21.00;24.30;;;;;;5140250;27;19930;-55
2022/04/18 01:53:33;;;;;;;;;;;21.20;24.00;;;;;;5148623;27;19933;-61
2022/04/18 01:55:59;;;;;;;;;;;20.80;24.50;;;;;;5143198;27;19955;-58
2022/04/18 01:58:25;;;;;;;;;;;21.10;24.20;;;;;;5143329;27;19962;-54
2022/04/18 02:00:50;;;;;;;;;;;21.10;24.30;;;;;;5148354;27;19923;-61
2022/04/18 02:03:16;;;;;;;;;;;21.10;24.40;;;;;;5142862;27;20033;-54
2022/04/18 02:05:43;;;;;;;;;;;21.00;24.50;;;;;;5147637;27;20385;-58
2022/04/18 02:08:09;;;;;;;;;;;21.10;24.50;;;;;;5139599;27;19927;-60
2022/04/18 02:10:38;;;;;;;;;;;20.80;24.80;;;;;;5141831;27;19930;-61
2022/04/18 02:13:04;;;;;;;;;;;21.00;24.70;;;;;;5148260;27;20019;-56
2022/04/18 02:15:31;;;;;;;;;;;21.10;24.70;;;;;;5142588;27;19972;-63
2022/04/18 02:17:56;;;;;;;;;;;21.10;24.70;;;;;;5142739;27;19923;-59
2022/04/18 02:20:22;;;;;;;;;;;21.10;24.80;;;;;;5111710;27;20313;-58
2022/04/18 02:22:48;;;;;;;;;;;21.00;25.00;;;;;;5141251;27;19930;-60
2022/04/18 02:25:15;;;;;;;;;;;21.10;24.90;;;;;;5141576;27;20385;-55
2022/04/18 02:27:41;;;;;;;;;;;21.00;25.10;;;;;;5144363;27;20293;-59
2022/04/18 02:30:09;;;;;;;;;;;21.30;24.80;;;;;;5142636;27;19941;-58
2022/04/18 02:32:47;;;;;;;;;;;20.80;25.30;;;;;;5129780;27;19923;-61
2022/04/18 02:35:13;;;;;;;;;;;21.10;25.00;;;;;;5143108;27;19966;-57
2022/04/18 02:37:39;;;;;;;;;;;21.10;25.10;;;;;;5142606;27;19923;-56
2022/04/18 02:40:05;;;;;;;;;;;21.00;25.00;;;;;;5147813;27;19964;-61
2022/04/18 02:42:31;;;;;;;;;;;21.20;24.90;;;;;;5142494;27;20298;-53
2022/04/18 02:44:57;;;;;;;;;;;21.00;25.00;;;;;;5137717;27;19999;-57
2022/04/18 02:47:22;;;;;;;;;;;21.10;25.00;;;;;;5146943;27;19929;-60
2022/04/18 02:49:50;;;;;;;;;;;21.00;25.10;;;;;;5142426;27;19927;-59
2022/04/18 02:52:16;;;;;;;;;;;21.30;24.90;;;;;;5144728;27;20016;-58
2022/04/18 02:54:43;;;;;;;;;;;20.80;25.30;;;;;;5146168;27;20334;-57
2022/04/18 02:57:11;;;;;;;;;;;21.10;25.00;;;;;;5142147;27;20001;-60
2022/04/18 02:59:37;;;;;;;;;;;21.00;25.10;;;;;;5147559;27;19929;-59
2022/04/18 03:02:03;;;;;;;;;;;21.10;24.90;;;;;;5119655;27;20376;-60
2022/04/18 03:04:29;;;;;;;;;;;21.00;25.20;;;;;;5138274;27;19951;-58
2022/04/18 03:06:55;;;;;;;;;;;21.10;25.00;;;;;;5147491;27;20400;-60
2022/04/18 03:09:20;;;;;;;;;;;21.10;24.90;;;;;;5142091;27;19923;-59
2022/04/18 03:11:46;;;;;;;;;;;21.00;25.00;;;;;;5142135;27;19923;-61
2022/04/18 03:14:12;;;;;;;;;;;20.90;25.20;;;;;;5147139;27;20699;-52
2022/04/18 03:16:38;;;;;;;;;;;21.20;25.00;;;;;;5141623;27;20295;-59
2022/04/18 03:19:03;;;;;;;;;;;21.10;25.20;;;;;;5147136;27;19934;-63
2022/04/18 03:21:29;;;;;;;;;;;21.00;25.30;;;;;;5137210;27;20017;-59
2022/04/18 03:23:55;;;;;;;;;;;20.90;25.50;;;;;;5140392;27;20391;-58
2022/04/18 03:26:21;;;;;;;;;;;21.20;25.00;;;;;;5147073;27;19927;-59
2022/04/18 03:28:47;;;;;;;;;;;21.00;25.00;;;;;;5141417;27;19934;-59
2022/04/18 03:31:12;;;;;;;;;;;21.10;24.80;;;;;;5141808;27;20310;-58
2022/04/18 03:33:38;;;;;;;;;;;21.10;24.80;;;;;;5146496;27;19923;-61
2022/04/18 03:41:33;;;;;;;;;;;21.20;24.60;;;;;;5144644;27;19930;-59
2022/04/18 03:43:59;;;;;;;;;;;20.90;24.70;;;;;;5141472;27;19938;-60
2022/04/18 03:46:25;;;;;;;;;;;21.20;24.50;;;;;;5144655;27;19927;-58
2022/04/18 03:48:50;;;;;;;;;;;21.10;24.60;;;;;;5144317;27;19987;-54
2022/04/18 03:51:16;;;;;;;;;;;21.30;24.40;;;;;;5141452;27;19930;-60
2022/04/18 03:53:42;;;;;;;;;;;20.90;24.80;;;;;;5146743;27;19923;-58
2022/04/18 03:56:08;;;;;;;;;;;21.10;24.50;;;;;;5141845;27;19951;-60
2022/04/18 03:58:33;;;;;;;;;;;20.90;24.80;;;;;;5136280;27;19934;-61
2022/04/18 04:00:59;;;;;;;;;;;21.10;24.60;;;;;;5127780;27;19923;-57
2022/04/18 04:03:26;;;;;;;;;;;21.00;24.70;;;;;;5141474;27;19938;-55
2022/04/18 04:05:53;;;;;;;;;;;21.10;24.70;;;;;;5141831;27;19945;-59
2022/04/18 04:08:22;;;;;;;;;;;21.10;24.70;;;;;;5146527;27;19923;-55
2022/04/18 04:10:49;;;;;;;;;;;21.10;24.80;;;;;;5141087;27;19937;-59
2022/04/18 04:13:15;;;;;;;;;;;21.00;24.80;;;;;;5146700;27;19923;-62
2022/04/18 04:15:41;;;;;;;;;;;21.20;24.80;;;;;;5138654;27;19934;-59
2022/04/18 04:18:06;;;;;;;;;;;20.90;25.10;;;;;;5138144;27;20014;-60
2022/04/18 04:20:32;;;;;;;;;;;21.10;25.00;;;;;;5146315;27;20037;-60
2022/04/18 04:22:58;;;;;;;;;;;21.00;25.00;;;;;;5140996;27;19992;-59
2022/04/18 04:25:24;;;;;;;;;;;21.10;25.00;;;;;;5141170;27;20421;-63
2022/04/18 04:27:49;;;;;;;;;;;21.00;25.20;;;;;;5146318;27;20026;-54
2022/04/18 04:30:15;;;;;;;;;;;21.10;25.00;;;;;;5140866;27;19931;-60
2022/04/18 04:32:41;;;;;;;;;;;21.10;25.00;;;;;;5146194;27;20471;-58
2022/04/18 04:35:07;;;;;;;;;;;21.10;25.00;;;;;;5136446;27;19928;-60
2022/04/18 04:37:33;;;;;;;;;;;21.00;25.20;;;;;;5139693;27;19930;-57
2022/04/18 04:39:58;;;;;;;;;;;21.10;25.00;;;;;;5146192;27;19930;-58
2022/04/18 04:42:24;;;;;;;;;;;21.00;25.20;;;;;;5140612;27;20385;-58
2022/04/18 04:44:50;;;;;;;;;;;21.10;24.90;;;;;;5140697;27;20179;-60
2022/04/18 04:47:16;;;;;;;;;;;21.00;25.10;;;;;;5149398;27;19923;-59
2022/04/18 04:49:41;;;;;;;;;;;21.10;24.90;;;;;;5144311;27;19923;-56
2022/04/18 04:52:07;;;;;;;;;;;20.80;25.20;;;;;;5147989;27;19923;-57
2022/04/18 04:54:34;;;;;;;;;;;21.10;24.80;;;;;;5140987;27;19931;-54
2022/04/18 04:57:00;;;;;;;;;;;21.20;24.70;;;;;;5144320;27;20285;-58
2022/04/18 04:59:25;;;;;;;;;;;20.90;24.90;;;;;;5149281;27;19923;-57
2022/04/18 05:01:51;;;;;;;;;;;21.20;24.70;;;;;;5144088;27;20355;-60
2022/04/18 05:04:17;;;;;;;;;;;21.00;24.90;;;;;;5143872;27;20315;-58
2022/04/18 05:06:43;;;;;;;;;;;21.20;24.70;;;;;;5149349;27;19987;-57
2022/04/18 05:09:09;;;;;;;;;;;21.00;25.00;;;;;;5143795;27;19973;-53
2022/04/18 05:11:34;;;;;;;;;;;21.20;25.00;;;;;;5142770;27;19934;-59
2022/04/18 05:14:00;;;;;;;;;;;21.00;25.20;;;;;;5145020;27;20159;-59
2022/04/18 05:16:26;;;;;;;;;;;21.10;25.10;;;;;;5143729;27;19930;-60
2022/04/18 05:18:52;;;;;;;;;;;20.90;25.30;;;;;;5149137;27;20443;-57
2022/04/18 05:21:17;;;;;;;;;;;21.20;25.10;;;;;;5143681;27;19967;-58
2022/04/18 05:23:43;;;;;;;;;;;21.20;25.00;;;;;;5143662;27;19934;-58
2022/04/18 05:26:09;;;;;;;;;;;21.00;25.10;;;;;;5149188;27;19931;-58
2022/04/18 05:28:35;;;;;;;;;;;21.10;25.10;;;;;;5143036;27;19923;-55
2022/04/18 05:31:01;;;;;;;;;;;21.00;25.10;;;;;;5139879;27;20010;-57
2022/04/18 05:33:27;;;;;;;;;;;21.10;25.00;;;;;;5148100;27;19923;-59
2022/04/18 05:35:53;;;;;;;;;;;21.10;24.90;;;;;;5143603;27;19927;-50
2022/04/18 05:38:18;;;;;;;;;;;21.00;25.00;;;;;;5149165;27;19924;-61
2022/04/18 05:40:44;;;;;;;;;;;21.10;24.80;;;;;;5143389;27;20274;-60
2022/04/18 05:43:10;;;;;;;;;;;20.90;24.90;;;;;;5143389;27;20305;-56
2022/04/18 05:45:36;;;;;;;;;;;21.10;24.80;;;;;;5148681;27;19962;-60
2022/04/18 05:48:02;;;;;;;;;;;21.10;25.10;;;;;;5139677;27;20006;-59
2022/04/18 05:50:27;;;;;;;;;;;21.20;25.00;;;;;;5141249;27;19946;-60
2022/04/18 05:52:54;;;;;;;;;;;21.00;25.40;;;;;;5148458;27;19971;-60
2022/04/18 05:55:22;;;;;;;;;;;21.20;25.30;;;;;;5143206;27;20330;-58
2022/04/18 05:57:49;;;;;;;;;;;21.00;25.60;;;;;;5148358;27;19923;-59
2022/04/18 06:00:15;;;;;;;;;;;21.10;25.60;;;;;;5142716;27;19923;-56
2022/04/18 06:02:41;;;;;;;;;;;21.10;25.70;;;;;;5143166;27;19934;-57
2022/04/18 06:05:07;;;;;;;;;;;21.10;25.70;;;;;;5148313;27;19924;-55
2022/04/18 06:07:34;;;;;;;;;;;21.10;25.80;;;;;;5138146;27;20297;-59
2022/04/18 06:10:01;;;;;;;;;;;21.10;25.70;;;;;;5142745;27;19927;-57
2022/04/18 06:12:26;;;;;;;;;;;20.90;26.00;;;;;;5148344;27;20025;-54
2022/04/18 06:14:53;;;;;;;;;;;21.10;25.60;;;;;;5143031;27;19996;-57
2022/04/18 06:17:19;;;;;;;;;;;21.10;25.60;;;;;;5147484;27;20335;-59
2022/04/18 06:19:44;;;;;;;;;;;21.20;25.60;;;;;;5143946;27;19930;-59
2022/04/18 06:22:10;;;;;;;;;;;21.00;25.80;;;;;;5142538;27;19981;-58
2022/04/18 06:24:36;;;;;;;;;;;21.10;25.60;;;;;;5124594;27;19923;-61
2022/04/18 06:27:02;;;;;;;;;;;21.00;25.80;;;;;;5140817;27;20427;-56
2022/04/18 06:29:28;;;;;;;;;;;21.20;25.30;;;;;;5142563;27;20022;-56
2022/04/18 06:31:53;;;;;;;;;;;20.90;25.50;;;;;;5147982;27;20512;-59
2022/04/18 06:34:20;;;;;;;;;;;21.20;25.10;;;;;;5142407;27;19927;-61
2022/04/18 06:36:45;;;;;;;;;;;20.80;25.40;;;;;;5144743;27;19927;-55
2022/04/18 06:39:11;;;;;;;;;;;21.20;24.90;;;;;;5145582;27;19948;-55
2022/04/18 06:41:37;;;;;;;;;;;21.00;25.10;;;;;;5142506;27;20361;-57
2022/04/18 06:44:03;;;;;;;;;;;21.10;24.90;;;;;;5142909;27;20231;-58
2022/04/18 06:46:28;;;;;;;;;;;21.20;24.70;;;;;;5141966;27;19923;-58
2022/04/18 06:48:54;;;;;;;;;;;21.00;24.90;;;;;;5142239;27;19974;-59
2022/04/18 06:51:20;;;;;;;;;;;21.10;24.70;;;;;;5147685;27;19923;-59
2022/04/18 06:53:46;;;;;;;;;;;21.00;24.80;;;;;;5142322;27;19934;-58
2022/04/18 06:58:56;;;;;;;;;;;21.00;24.70;;;;;;5147766;27;20396;-57
2022/04/18 07:01:22;;;;;;;;;;;21.00;24.60;;;;;;5138735;27;19923;-59
2022/04/18 07:03:48;;;;;;;;;;;21.00;24.60;;;;;;5143865;27;19969;-59
2022/04/18 07:06:13;;;;;;;;;;;21.10;24.40;;;;;;5125862;27;19968;-58
2022/04/18 07:08:39;;;;;;;;;;;21.00;24.70;;;;;;5141412;27;19923;-58
2022/04/18 07:11:05;;;;;;;;;;;21.00;24.60;;;;;;5147476;27;19927;-59
2022/04/18 07:13:31;;;;;;;;;;;21.10;24.70;;;;;;5141985;27;19927;-63
2022/04/18 07:15:56;;;;;;;;;;;21.20;24.50;;;;;;5142090;27;19923;-60
2022/04/18 07:18:22;;;;;;;;;;;20.90;24.80;;;;;;5128683;27;19975;-59
2022/04/18 07:20:48;;;;;;;;;;;21.20;24.50;;;;;;5118789;27;19930;-58
2022/04/18 07:23:14;;;;;;;;;;;21.00;24.80;;;;;;5143385;27;19923;-61
2022/04/18 07:25:39;;;;;;;;;;;21.20;24.60;;;;;;5145672;27;19931;-60
2022/04/18 07:28:05;;;;;;;;;;;21.10;24.60;;;;;;5141891;27;19923;-60
2022/04/18 07:30:31;;;;;;;;;;;21.10;24.50;;;;;;5147228;27;19923;-59
2022/04/18 07:32:57;;;;;;;;;;;21.10;24.50;;;;;;5142196;27;19930;-58
2022/04/18 07:35:22;;;;;;;;;;;20.90;24.60;;;;;;5141910;27;19923;-64
2022/04/18 07:40:33;;;;;;;;;;;20.90;24.50;;;;;;5139210;27;20301;-61
2022/04/18 07:42:58;;;;;;;;;;;21.30;24.20;;;;;;5141471;27;19927;-61
2022/04/18 07:45:24;;;;;;;;;;;20.90;24.60;;;;;;5146912;27;20463;-61
2022/04/18 07:47:50;;;;;;;;;;;21.30;24.20;;;;;;5141692;27;19930;-60
2022/04/18 07:50:16;;;;;;;;;;;21.00;24.50;;;;;;5144999;27;19970;-58
2022/04/18 07:52:42;;;;;;;;;;;21.10;24.50;;;;;;5125407;27;19923;-60
2022/04/18 07:55:07;;;;;;;;;;;21.00;24.70;;;;;;5141456;27;20366;-62
2022/04/18 07:57:33;;;;;;;;;;;21.20;24.50;;;;;;5141716;27;20048;-58
2022/04/18 07:59:59;;;;;;;;;;;21.00;24.70;;;;;;5140918;27;19964;-60
2022/04/18 08:02:25;;;;;;;;;;;21.30;24.40;;;;;;5122898;27;19923;-56
2022/04/18 08:04:51;;;;;;;;;;;20.90;24.60;;;;;;5146621;27;19923;-60
2022/04/18 08:07:16;;;;;;;;;;;21.30;24.30;;;;;;5141337;27;19988;-58
2022/04/18 08:09:42;;;;;;;;;;;21.00;24.40;;;;;;5142439;27;19923;-60
2022/04/18 08:12:11;;;;;;;;;;;21.10;24.10;;;;;;5145966;27;20294;-59
2022/04/18 08:14:38;;;;;;;;;;;21.10;24.30;;;;;;5138284;27;20640;-59
2022/04/18 08:17:04;;;;;;;;;;;21.20;24.10;;;;;;5144005;27;19927;-59
2022/04/18 08:19:29;;;;;;;;;;;21.00;24.50;;;;;;5141286;27;19927;-59
2022/04/18 08:21:56;;;;;;;;;;;21.00;24.40;;;;;;5144083;27;19935;-55
2022/04/18 08:24:21;;;;;;;;;;;21.20;24.30;;;;;;5150140;27;19930;-51
2022/04/18 08:26:48;;;;;;;;;;;21.00;24.30;;;;;;5144659;27;20282;-62
2022/04/18 08:29:14;;;;;;;;;;;21.20;24.20;;;;;;5144773;27;19923;-51
2022/04/18 08:31:40;;;;;;;;;;;21.00;24.40;;;;;;5149788;27;19976;-60
2022/04/18 08:34:05;;;;;;;;;;;21.30;24.10;;;;;;5139968;27;19950;-57
2022/04/18 08:36:33;;;;;;;;;;;21.00;24.40;;;;;;5149187;27;20055;-59
2022/04/18 08:38:59;;;;;;;;;;;21.20;24.40;;;;;;5144508;27;19930;-58
2022/04/18 08:41:26;;;;;;;;;;;21.10;24.50;;;;;;5144391;27;19926;-57
2022/04/18 08:43:52;;;;;;;;;;;21.20;24.40;;;;;;5149916;27;19930;-60
2022/04/18 08:46:18;;;;;;;;;;;21.00;24.50;;;;;;5144324;27;19951;-57
2022/04/18 08:54:29;;;;;;;;;;;21.10;24.40;;;;;;5046479;28;19997;-57
2022/04/18 08:56:55;;;;;;;;;;;21.00;24.40;;;;;;5126693;27;20382;-62
2022/04/18 08:59:21;;;;;;;;;;;21.30;24.00;;;;;;5149532;27;20615;-58
2022/04/18 09:01:50;;;;;;;;;;;21.00;24.40;;;;;;5144392;27;20013;-61
2022/04/18 09:04:17;;;;;;;;;;;21.20;24.20;;;;;;5144245;27;19931;-60
2022/04/18 09:06:43;;;;;;;;;;;21.00;24.50;;;;;;5130070;27;19927;-62
2022/04/18 09:09:09;;;;;;;;;;;21.20;24.20;;;;;;5143363;27;19930;-57
2022/04/18 09:11:37;;;;;;;;;;;21.00;24.50;;;;;;5141943;27;19934;-60
2022/04/18 09:14:03;;;;;;;;;;;21.30;24.20;;;;;;5148046;27;20396;-50
2022/04/18 09:16:29;;;;;;;;;;;21.00;24.40;;;;;;5143697;27;19927;-59
2022/04/18 09:19:05;;;;;;;;;;;21.20;24.20;;;;;;5149248;27;20014;-57
2022/04/18 09:21:32;;;;;;;;;;;21.10;24.60;;;;;;5143857;27;19980;-57
2022/04/18 09:23:57;;;;;;;;;;;21.20;24.60;;;;;;5107163;27;19923;-62
2022/04/18 09:26:23;;;;;;;;;;;21.10;24.60;;;;;;5149194;27;19976;-59
2022/04/18 09:28:49;;;;;;;;;;;21.10;24.50;;;;;;5139551;27;19923;-59
2022/04/18 09:31:17;;;;;;;;;;;21.20;24.50;;;;;;5141852;27;19934;-59
2022/04/18 09:33:44;;;;;;;;;;;21.10;24.50;;;;;;5148816;27;19929;-60
2022/04/18 09:36:11;;;;;;;;;;;21.20;24.30;;;;;;5143783;27;19930;-60
2022/04/18 09:38:38;;;;;;;;;;;21.00;24.60;;;;;;5147600;27;19929;-58
2022/04/18 09:41:04;;;;;;;;;;;21.20;24.40;;;;;;5145509;27;20457;-60
2022/04/18 09:43:37;;;;;;;;;;;21.00;24.20;;;;;;5123960;27;20301;-62
2022/04/18 09:46:03;;;;;;;;;;;21.20;24.00;;;;;;5147330;27;20017;-58
2022/04/18 09:48:31;;;;;;;;;;;21.00;24.10;;;;;;5119862;27;20397;-58
2022/04/18 09:51:00;;;;;;;;;;;21.00;24.20;;;;;;5143426;27;19930;-60
2022/04/18 09:53:26;;;;;;;;;;;21.10;24.20;;;;;;5130171;27;19923;-62
2022/04/18 09:55:58;;;;;;;;;;;21.20;24.10;;;;;;5143468;27;19948;-62
2022/04/18 09:58:24;;;;;;;;;;;21.10;24.00;;;;;;5125200;27;20325;-60
2022/04/18 10:00:50;;;;;;;;;;;21.10;24.00;;;;;;5130272;27;19931;-57
2022/04/18 10:03:16;;;;;;;;;;;21.20;23.90;;;;;;5143275;27;20263;-62
2022/04/18 10:05:42;;;;;;;;;;;21.20;23.80;;;;;;5142876;27;19923;-59
2022/04/18 10:08:08;;;;;;;;;;;21.20;23.50;;;;;;5143480;27;20335;-61
2022/04/18 10:10:34;;;;;;;;;;;21.20;23.40;;;;;;5142943;27;20025;-60
2022/04/18 10:13:00;;;;;;;;;;;21.00;23.70;;;;;;5148508;27;20539;-60
2022/04/18 10:15:26;;;;;;;;;;;21.20;23.50;;;;;;5142970;27;19977;-59
2022/04/18 10:17:52;;;;;;;;;;;21.10;23.70;;;;;;5143116;27;19937;-62
2022/04/18 10:20:25;;;;;;;;;;;21.10;23.70;;;;;;5148269;27;20390;-62
2022/04/18 10:23:03;;;;;;;;;;;21.10;23.50;;;;;;5122742;27;20325;-52
2022/04/18 10:25:33;;;;;;;;;;;21.00;23.70;;;;;;5140061;27;20724;-61
2022/04/18 10:28:17;;;;;;;;;;;21.30;23.50;;;;;;5144335;27;19979;-59
2022/04/18 10:30:47;;;;;;;;;;;21.20;23.60;;;;;;5142542;27;19966;-63
2022/04/18 10:33:13;;;;;;;;;;;21.20;23.50;;;;;;5124244;27;19923;-61
2022/04/18 10:35:59;;;;;;;;;;;21.30;23.50;;;;;;5147907;27;19931;-61
2022/04/18 10:38:26;;;;;;;;;;;21.30;23.70;;;;;;5141824;27;19927;-60
2022/04/18 10:41:14;;;;;;;;;;;21.10;23.60;;;;;;5142256;27;20113;-60
2022/04/18 10:43:53;;;;;;;;;;;21.10;23.70;;;;;;5142336;27;21462;-60
2022/04/18 10:46:20;;;;;;;;;;;21.10;23.60;;;;;;5142334;27;20239;-60
2022/04/18 10:48:53;;;;;;;;;;;21.20;23.40;;;;;;5142165;27;19961;-61
2022/04/18 10:51:29;;;;;;;;;;;21.10;23.40;;;;;;5147732;27;20287;-59
2022/04/18 10:54:04;;;;;;;;;;;21.00;23.60;;;;;;5142338;27;20351;-60
2022/04/18 10:56:44;;;;;;;;;;;21.30;23.40;;;;;;5142205;27;20141;-61
2022/04/18 10:59:11;;;;;;;;;;;21.20;23.60;;;;;;5147453;27;20359;-61
2022/04/18 11:01:37;;;;;;;;;;;21.20;23.90;;;;;;5100020;27;20159;-60
2022/04/18 11:04:05;;;;;;;;;;;21.20;24.00;;;;;;5141818;27;19935;-63
2022/04/18 11:06:36;;;;;;;;;;;21.20;23.70;;;;;;5128994;27;19923;-65
2022/04/18 11:09:08;;;;;;;;;;;21.10;23.60;;;;;;5142333;27;20071;-61
2022/04/18 11:11:34;;;;;;;;;;;21.20;23.70;;;;;;5145054;27;19967;-58
2022/04/18 11:14:00;;;;;;;;;;;21.30;23.90;;;;;;5145356;27;20006;-60
2022/04/18 11:16:26;;;;;;;;;;;21.20;23.80;;;;;;5141929;27;19927;-58
2022/04/18 11:19:07;;;;;;;;;;;21.00;23.80;;;;;;5143699;27;19923;-59
2022/04/18 11:21:52;;;;;;;;;;;21.10;23.80;;;;;;5140477;27;19927;-60
2022/04/18 11:24:36;;;;;;;;;;;21.20;24.00;;;;;;5141745;27;20366;-61
2022/04/18 11:27:06;;;;;;;;;;;21.20;24.00;;;;;;5144584;27;19923;-58
2022/04/18 11:29:32;;;;;;;;;;;21.20;23.90;;;;;;5146357;27;19986;-62
2022/04/18 11:31:58;;;;;;;;;;;21.20;24.10;;;;;;5141566;27;19968;-61
2022/04/18 11:34:28;;;;;;;;;;;21.30;23.90;;;;;;5147045;27;20438;-60
2022/04/18 11:36:55;;;;;;;;;;;21.20;23.90;;;;;;5138298;27;19922;-61
2022/04/18 11:39:20;;;;;;;;;;;21.20;23.90;;;;;;5139451;27;19923;-61
2022/04/18 11:41:46;;;;;;;;;;;21.30;23.80;;;;;;5146904;27;19972;-62
2022/04/18 11:44:12;;;;;;;;;;;21.30;23.50;;;;;;5141499;27;19930;-60
2022/04/18 11:46:38;;;;;;;;;;;21.30;23.60;;;;;;5141512;27;20228;-61
2022/04/18 11:49:04;;;;;;;;;;;21.30;23.60;;;;;;5128483;27;20341;-60
2022/04/18 11:51:39;;;;;;;;;;;21.30;23.40;;;;;;5141390;27;19923;-60
2022/04/18 11:54:05;;;;;;;;;;;21.30;23.60;;;;;;5145750;27;19929;-58
2022/04/18 11:56:30;;;;;;;;;;;21.30;23.70;;;;;;5141286;27;19981;-61
2022/04/18 11:58:58;;;;;;;;;;;21.30;23.60;;;;;;5144757;27;20917;-63
2022/04/18 12:06:52;;;;;;;;;;;21.30;23.40;;;;;;5145091;27;19975;-61
2022/04/18 12:09:21;;;;;;;;;;;21.30;23.30;;;;;;5150340;27;20298;-61
2022/04/18 12:11:47;;;;;;;;;;;21.30;23.40;;;;;;5144859;27;20293;-60
2022/04/18 12:14:12;;;;;;;;;;;21.30;23.40;;;;;;5140665;27;19970;-60
2022/04/18 12:16:38;;;;;;;;;;;21.30;23.60;;;;;;5148893;27;19934;-60
2022/04/18 12:19:05;;;;;;;;;;;21.30;23.70;;;;;;5144884;27;19927;-64
2022/04/18 12:21:33;;;;;;;;;;;21.30;23.70;;;;;;5144533;27;20204;-59
2022/04/18 12:23:59;;;;;;;;;;;21.30;23.40;;;;;;5149935;27;19934;-60
2022/04/18 12:26:31;;;;;;;;;;;21.30;23.50;;;;;;5144670;27;20048;-62
2022/04/18 12:28:58;;;;;;;;;;;21.40;23.60;;;;;;5148188;27;20022;-59
2022/04/18 12:31:23;;;;;;;;;;;21.40;23.80;;;;;;5145490;27;19923;-59
2022/04/18 12:33:50;;;;;;;;;;;21.30;23.60;;;;;;5140502;27;19927;-62
2022/04/18 12:36:22;;;;;;;;;;;21.30;23.60;;;;;;5149807;27;19923;-64
2022/04/18 12:38:48;;;;;;;;;;;21.30;23.60;;;;;;5144466;27;19923;-63
2022/04/18 12:41:14;;;;;;;;;;;21.40;23.50;;;;;;5144346;27;20491;-61
2022/04/18 12:43:40;;;;;;;;;;;21.40;23.20;;;;;;5150064;27;20250;-60
2022/04/18 12:46:07;;;;;;;;;;;21.60;22.90;;;;;;5144378;27;19931;-61
2022/04/18 12:48:33;;;;;;;;;;;21.60;22.90;;;;;;5144142;27;20194;-60
2022/04/18 12:51:00;;;;;;;;;;;21.50;23.00;;;;;;5145330;27;19971;-64
2022/04/18 12:53:44;;;;;;;;;;;21.50;22.90;;;;;;5142950;27;19930;-61
2022/04/18 12:56:10;;;;;;;;;;;21.50;22.90;;;;;;5144408;27;19931;-58
2022/04/18 12:58:39;;;;;;;;;;;21.60;22.80;;;;;;5149373;27;19975;-62
2022/04/18 13:01:05;;;;;;;;;;;21.60;22.80;;;;;;5143968;27;19979;-64
2022/04/18 13:03:39;;;;;;;;;;;21.50;22.80;;;;;;5149367;27;20358;-58
2022/04/18 13:06:05;;;;;;;;;;;21.50;22.80;;;;;;5142857;27;20032;-61
2022/04/18 13:08:35;;;;;;;;;;;21.50;22.70;;;;;;5141186;27;20128;-60
2022/04/18 13:11:00;;;;;;;;;;;21.60;22.80;;;;;;5146786;27;20391;-62
2022/04/18 13:13:26;;;;;;;;;;;21.60;22.80;;;;;;5124828;27;19923;-60
2022/04/18 13:15:52;;;;;;;;;;;21.70;22.90;;;;;;5143801;27;20446;-61
2022/04/18 13:18:19;;;;;;;;;;;21.60;23.10;;;;;;5149227;27;20302;-63
2022/04/18 13:20:44;;;;;;;;;;;21.60;23.00;;;;;;5143822;27;19927;-60
2022/04/18 13:23:10;;;;;;;;;;;21.50;23.10;;;;;;5127905;27;20338;-59
2022/04/18 13:25:36;;;;;;;;;;;21.50;23.20;;;;;;5146551;27;19923;-61
2022/04/18 13:28:06;;;;;;;;;;;21.60;23.40;;;;;;5138710;27;19923;-58
2022/04/18 13:30:33;;;;;;;;;;;21.60;23.50;;;;;;5148534;27;19927;-60
2022/04/18 13:32:58;;;;;;;;;;;21.60;23.50;;;;;;5143654;27;20313;-60
2022/04/18 13:35:24;;;;;;;;;;;21.70;23.30;;;;;;5143788;27;20178;-60
2022/04/18 13:37:51;;;;;;;;;;;21.60;23.20;;;;;;5149282;27;20393;-60
2022/04/18 13:40:17;;;;;;;;;;;21.70;23.00;;;;;;5143410;27;20389;-60
2022/04/18 13:42:43;;;;;;;;;;;21.60;23.00;;;;;;5143349;27;19927;-61
2022/04/18 13:45:09;;;;;;;;;;;21.70;23.00;;;;;;5146382;27;19966;-59
2022/04/18 13:47:36;;;;;;;;;;;21.70;23.00;;;;;;5140231;27;19929;-60
2022/04/18 13:50:01;;;;;;;;;;;21.70;23.00;;;;;;5130190;27;20388;-62
2022/04/18 13:52:27;;;;;;;;;;;21.60;22.80;;;;;;5143159;27;20052;-57
2022/04/18 13:54:53;;;;;;;;;;;21.80;22.70;;;;;;5143046;27;19923;-61
2022/04/18 13:57:19;;;;;;;;;;;21.80;22.60;;;;;;5148477;27;19927;-62
2022/04/18 13:59:45;;;;;;;;;;;21.80;22.80;;;;;;5143017;27;19988;-60
2022/04/18 14:02:10;;;;;;;;;;;21.70;22.80;;;;;;5143104;27;19938;-61
2022/04/18 14:04:36;;;;;;;;;;;21.70;22.90;;;;;;5143915;27;19923;-62
2022/04/18 14:07:03;;;;;;;;;;;21.70;22.80;;;;;;5142046;27;19931;-62
2022/04/18 14:09:30;;;;;;;;;;;21.80;22.80;;;;;;5148435;27;19930;-60
2022/04/18 14:11:56;;;;;;;;;;;21.80;22.80;;;;;;5143028;27;19923;-62
2022/04/18 14:22:36;;;;;;;;;;;21.80;22.90;;;;;;5134937;27;19933;-63
2022/04/18 14:25:02;;;;;;;;;;;21.90;22.90;;;;;;5145599;27;20409;-58
2022/04/18 14:27:28;;;;;;;;;;;21.80;22.80;;;;;;5143950;27;19977;-60
2022/04/18 14:29:55;;;;;;;;;;;21.80;22.80;;;;;;5142661;27;20382;-61
2022/04/18 14:32:21;;;;;;;;;;;21.80;22.80;;;;;;5147994;27;19927;-61
2022/04/18 14:34:47;;;;;;;;;;;21.80;22.90;;;;;;5142539;27;20294;-61
2022/04/18 14:37:13;;;;;;;;;;;21.80;22.80;;;;;;5142546;27;19934;-60
2022/04/18 14:39:39;;;;;;;;;;;21.80;22.90;;;;;;5147944;27;20022;-58
2022/04/18 14:42:05;;;;;;;;;;;21.90;22.70;;;;;;5137554;27;19972;-60
2022/04/18 14:44:30;;;;;;;;;;;21.80;22.40;;;;;;5143664;27;19930;-56
2022/04/18 14:46:57;;;;;;;;;;;22.00;22.60;;;;;;5146801;27;19926;-61